createdAt,value
2023-03-16T00:00:09.748Z,1.81
2023-03-16T00:01:11.969Z,1.80
2023-03-16T00:02:14.048Z,1.78
2023-03-16T00:03:21.926Z,1.79
2023-03-16T00:04:23.970Z,1.75
2023-03-16T00:05:26.069Z,1.74
2023-03-16T00:06:28.199Z,1.75
2023-03-16T00:07:30.684Z,1.75
2023-03-16T00:08:32.743Z,1.74
2023-03-16T00:09:34.832Z,1.75
2023-03-16T00:10:36.714Z,1.74
2023-03-16T00:11:38.509Z,1.69
2023-03-16T00:12:40.457Z,1.70
2023-03-16T00:13:43.058Z,1.71
2023-03-16T00:14:47.531Z,1.69
2023-03-16T00:16:07.875Z,1.66
2023-03-16T00:17:20.620Z,1.66
2023-03-16T00:18:27.365Z,1.61
2023-03-16T00:19:29.290Z,1.60
2023-03-16T00:20:31.216Z,1.59
2023-03-16T00:21:35.291Z,1.58
2023-03-16T00:22:37.094Z,1.56
2023-03-16T00:23:38.946Z,1.55
2023-03-16T00:24:43.413Z,1.54
2023-03-16T00:25:45.369Z,1.54
2023-03-16T00:26:48.257Z,1.54
2023-03-16T00:27:50.765Z,1.53
2023-03-16T00:28:54.657Z,1.53
2023-03-16T00:29:57.285Z,1.54
2023-03-16T00:30:59.435Z,1.54
2023-03-16T00:32:01.526Z,1.55
2023-03-16T00:33:05.104Z,1.56
2023-03-16T00:34:07.079Z,1.57
2023-03-16T00:35:09.801Z,1.56
2023-03-16T00:36:12.153Z,1.57
2023-03-16T00:37:16.931Z,1.57
2023-03-16T00:38:20.367Z,1.57
2023-03-16T00:39:22.938Z,1.60
2023-03-16T00:40:25.113Z,1.59
2023-03-16T00:41:27.070Z,1.58
2023-03-16T00:42:30.639Z,1.58
2023-03-16T00:43:41.031Z,1.58
2023-03-16T00:44:43.447Z,1.59
2023-03-16T00:45:45.713Z,1.58
2023-03-16T00:46:47.756Z,1.57
2023-03-16T00:47:49.616Z,1.57
2023-03-16T00:48:51.610Z,1.56
2023-03-16T00:49:53.729Z,1.57
2023-03-16T00:50:55.710Z,1.56
2023-03-16T00:51:57.516Z,1.56
2023-03-16T00:52:59.418Z,1.53
2023-03-16T00:54:01.270Z,1.53
2023-03-16T00:55:05.061Z,1.53
2023-03-16T00:56:07.346Z,1.53
2023-03-16T00:57:10.080Z,1.53
2023-03-16T00:58:15.074Z,1.54
2023-03-16T00:59:17.217Z,1.55
2023-03-16T01:00:21.005Z,1.54
2023-03-16T01:01:24.509Z,1.52
2023-03-16T01:02:26.569Z,1.54
2023-03-16T01:03:28.645Z,1.54
2023-03-16T01:04:30.786Z,1.52
2023-03-16T01:05:33.645Z,1.53
2023-03-16T01:06:35.554Z,1.55
2023-03-16T01:07:37.500Z,1.53
2023-03-16T01:08:40.587Z,1.52
2023-03-16T01:09:43.532Z,1.52
2023-03-16T01:10:45.605Z,1.50
2023-03-16T01:11:53.917Z,1.51
2023-03-16T01:12:56.351Z,1.52
2023-03-16T01:13:58.261Z,1.53
2023-03-16T01:15:00.798Z,1.54
2023-03-16T01:16:04.663Z,1.51
2023-03-16T01:17:08.827Z,1.51
2023-03-16T01:18:10.838Z,1.50
2023-03-16T01:19:13.371Z,1.50
2023-03-16T01:20:19.472Z,1.50
2023-03-16T01:21:22.099Z,1.50
2023-03-16T01:22:24.208Z,1.49
2023-03-16T01:23:26.108Z,1.48
2023-03-16T01:24:28.924Z,1.47
2023-03-16T01:25:30.981Z,1.48
2023-03-16T01:26:32.966Z,1.46
2023-03-16T01:27:34.988Z,1.46
2023-03-16T01:28:37.281Z,1.46
2023-03-16T01:29:40.518Z,1.47
2023-03-16T01:30:44.272Z,1.46
2023-03-16T01:31:46.137Z,1.45
2023-03-16T01:32:48.439Z,1.46
2023-03-16T01:33:50.401Z,1.47
2023-03-16T01:34:52.429Z,1.46
2023-03-16T01:35:55.154Z,1.46
2023-03-16T01:36:57.060Z,1.46
2023-03-16T01:37:58.977Z,1.46
2023-03-16T01:39:01.203Z,1.45
2023-03-16T01:40:06.360Z,1.45
2023-03-16T01:41:08.647Z,1.46
2023-03-16T01:42:10.984Z,1.48
2023-03-16T01:43:14.146Z,1.48
2023-03-16T01:44:28.344Z,1.48
2023-03-16T01:46:04.587Z,1.52
2023-03-16T01:47:06.993Z,1.48
2023-03-16T01:48:09.372Z,1.47
2023-03-16T01:49:23.959Z,1.48
2023-03-16T01:50:27.746Z,1.48
2023-03-16T01:51:44.076Z,1.47
2023-03-16T01:52:46.057Z,1.48
2023-03-16T01:53:53.245Z,1.49
2023-03-16T01:55:00.812Z,1.48
2023-03-16T01:56:08.489Z,1.48
2023-03-16T01:57:12.405Z,1.49
2023-03-16T01:58:14.809Z,1.49
2023-03-16T01:59:21.277Z,1.49
2023-03-16T02:00:31.576Z,1.48
2023-03-16T02:01:33.613Z,1.48
2023-03-16T02:02:36.359Z,1.48
2023-03-16T02:03:39.207Z,1.51
2023-03-16T02:04:59.620Z,1.51
2023-03-16T02:06:05.667Z,1.50
2023-03-16T02:07:09.151Z,1.51
2023-03-16T02:08:12.638Z,1.48
2023-03-16T02:09:16.555Z,1.48
2023-03-16T02:10:20.678Z,1.46
2023-03-16T02:11:23.604Z,1.47
2023-03-16T02:12:26.011Z,1.47
2023-03-16T02:13:29.747Z,1.46
2023-03-16T02:14:31.838Z,1.46
2023-03-16T02:15:36.261Z,1.47
2023-03-16T02:16:39.395Z,1.46
2023-03-16T02:17:44.126Z,1.48
2023-03-16T02:18:51.009Z,1.47
2023-03-16T02:20:17.269Z,1.50
2023-03-16T02:21:30.622Z,1.48
2023-03-16T02:22:36.065Z,1.47
2023-03-16T02:23:38.190Z,1.47
2023-03-16T02:24:40.452Z,1.48
2023-03-16T02:26:20.104Z,1.50
2023-03-16T02:27:35.284Z,1.47
2023-03-16T02:28:55.941Z,1.48
2023-03-16T02:30:07.588Z,1.47
2023-03-16T02:31:09.575Z,1.48
2023-03-16T02:32:13.058Z,1.49
2023-03-16T02:33:17.691Z,1.49
2023-03-16T02:34:19.838Z,1.48
2023-03-16T02:35:22.701Z,1.48
2023-03-16T02:36:24.746Z,1.49
2023-03-16T02:37:27.141Z,1.49
2023-03-16T02:38:29.178Z,1.48
2023-03-16T02:39:31.075Z,1.48
2023-03-16T02:40:34.958Z,1.49
2023-03-16T02:41:37.184Z,1.49
2023-03-16T02:42:39.372Z,1.49
2023-03-16T02:43:47.245Z,1.50
2023-03-16T02:44:55.539Z,1.50
2023-03-16T02:46:00.459Z,1.51
2023-03-16T02:47:36.113Z,1.53
2023-03-16T02:49:06.555Z,1.52
2023-03-16T02:50:11.487Z,1.49
2023-03-16T02:51:13.439Z,1.49
2023-03-16T02:52:15.446Z,1.49
2023-03-16T02:53:17.807Z,1.49
2023-03-16T02:54:20.205Z,1.47
2023-03-16T02:55:22.144Z,1.46
2023-03-16T02:56:24.539Z,1.46
2023-03-16T02:57:26.419Z,1.46
2023-03-16T02:58:28.437Z,1.44
2023-03-16T02:59:30.367Z,1.45
2023-03-16T03:00:32.393Z,1.45
2023-03-16T03:01:35.187Z,1.44
2023-03-16T03:02:37.075Z,1.44
2023-03-16T03:03:39.029Z,1.45
2023-03-16T03:04:41.002Z,1.47
2023-03-16T03:05:43.046Z,1.46
2023-03-16T03:06:44.965Z,1.46
2023-03-16T03:07:47.045Z,1.45
2023-03-16T03:08:48.934Z,1.46
2023-03-16T03:09:53.814Z,1.48
2023-03-16T03:10:55.705Z,1.48
2023-03-16T03:11:57.733Z,1.45
2023-03-16T03:13:00.032Z,1.46
2023-03-16T03:14:01.835Z,1.44
2023-03-16T03:15:04.294Z,1.45
2023-03-16T03:16:06.456Z,1.45
2023-03-16T03:17:09.623Z,1.47
2023-03-16T03:18:11.824Z,1.46
2023-03-16T03:19:13.989Z,1.45
2023-03-16T03:20:17.925Z,1.43
2023-03-16T03:21:20.179Z,1.44
2023-03-16T03:22:22.062Z,1.42
2023-03-16T03:23:24.078Z,1.42
2023-03-16T03:24:31.443Z,1.42
2023-03-16T03:25:36.303Z,1.42
2023-03-16T03:26:38.386Z,1.41
2023-03-16T03:27:44.415Z,1.42
2023-03-16T03:28:46.594Z,1.41
2023-03-16T03:29:48.824Z,1.42
2023-03-16T03:30:51.699Z,1.43
2023-03-16T03:31:53.708Z,1.42
2023-03-16T03:32:55.584Z,1.43
2023-03-16T03:33:57.484Z,1.45
2023-03-16T03:34:59.440Z,1.45
2023-03-16T03:36:02.391Z,1.43
2023-03-16T03:37:04.320Z,1.44
2023-03-16T03:38:08.200Z,1.44
2023-03-16T03:39:10.159Z,1.44
2023-03-16T03:40:14.365Z,1.44
2023-03-16T03:41:16.078Z,1.47
2023-03-16T03:42:18.176Z,1.46
2023-03-16T03:43:21.184Z,1.45
2023-03-16T03:44:24.174Z,1.44
2023-03-16T03:45:26.375Z,1.43
2023-03-16T03:46:28.493Z,1.43
2023-03-16T03:47:30.968Z,1.44
2023-03-16T03:48:33.788Z,1.45
2023-03-16T03:49:35.640Z,1.45
2023-03-16T03:50:38.858Z,1.47
2023-03-16T03:51:41.401Z,1.48
2023-03-16T03:52:43.292Z,1.50
2023-03-16T03:53:45.145Z,1.50
2023-03-16T03:54:47.027Z,1.51
2023-03-16T03:55:49.994Z,1.52
2023-03-16T03:56:52.528Z,1.53
2023-03-16T03:57:54.505Z,1.55
2023-03-16T03:58:56.292Z,1.56
2023-03-16T03:59:58.170Z,1.59
2023-03-16T04:01:00.004Z,1.63
2023-03-16T04:02:02.006Z,1.66
2023-03-16T04:03:04.342Z,1.72
2023-03-16T04:04:06.315Z,1.77
2023-03-16T04:05:09.016Z,1.79
2023-03-16T04:06:11.252Z,1.83
2023-03-16T04:07:13.165Z,1.84
2023-03-16T04:08:15.138Z,1.88
2023-03-16T04:09:17.069Z,2.01
2023-03-16T04:10:19.186Z,2.22
2023-03-16T04:11:21.585Z,2.45
2023-03-16T04:12:23.593Z,2.65
2023-03-16T04:13:25.578Z,2.70
2023-03-16T04:14:28.872Z,2.74
2023-03-16T04:15:33.119Z,2.81
2023-03-16T04:16:35.099Z,2.87
2023-03-16T04:17:37.009Z,2.87
2023-03-16T04:18:38.913Z,2.90
2023-03-16T04:19:40.833Z,2.92
2023-03-16T04:20:42.791Z,2.93
2023-03-16T04:21:44.644Z,2.95
2023-03-16T04:22:47.585Z,2.87
2023-03-16T04:23:54.403Z,2.81
2023-03-16T04:24:56.438Z,2.79
2023-03-16T04:25:58.329Z,2.75
2023-03-16T04:27:02.912Z,2.76
2023-03-16T04:28:05.164Z,2.76
2023-03-16T04:29:07.126Z,2.72
2023-03-16T04:30:12.628Z,2.72
2023-03-16T04:31:14.675Z,2.65
2023-03-16T04:32:16.751Z,2.60
2023-03-16T04:33:18.619Z,2.59
2023-03-16T04:34:25.220Z,2.56
2023-03-16T04:35:27.549Z,2.53
2023-03-16T04:36:29.395Z,2.52
2023-03-16T04:37:31.409Z,2.47
2023-03-16T04:38:34.400Z,2.44
2023-03-16T04:39:36.346Z,2.40
2023-03-16T04:40:38.452Z,2.37
2023-03-16T04:41:40.320Z,2.34
2023-03-16T04:42:42.537Z,2.36
2023-03-16T04:43:44.856Z,2.36
2023-03-16T04:44:46.675Z,2.36
2023-03-16T04:45:48.919Z,2.37
2023-03-16T04:46:50.801Z,2.40
2023-03-16T04:47:52.885Z,2.44
2023-03-16T04:48:58.494Z,2.48
2023-03-16T04:50:04.303Z,2.49
2023-03-16T04:51:06.418Z,2.56
2023-03-16T04:52:09.045Z,2.66
2023-03-16T04:53:11.103Z,2.71
2023-03-16T04:54:13.046Z,2.76
2023-03-16T04:55:14.911Z,2.73
2023-03-16T04:56:18.466Z,2.74
2023-03-16T04:57:20.301Z,2.71
2023-03-16T04:58:22.899Z,2.70
2023-03-16T04:59:24.762Z,2.71
2023-03-16T05:00:27.078Z,2.73
2023-03-16T05:01:29.247Z,2.73
2023-03-16T05:02:32.271Z,2.76
2023-03-16T05:03:34.934Z,2.76
2023-03-16T05:04:37.329Z,2.77
2023-03-16T05:05:40.014Z,2.76
2023-03-16T05:06:42.209Z,2.76
2023-03-16T05:07:45.111Z,2.75
2023-03-16T05:08:46.965Z,2.76
2023-03-16T05:09:48.888Z,2.78
2023-03-16T05:10:51.126Z,2.79
2023-03-16T05:11:53.061Z,2.76
2023-03-16T05:12:54.897Z,2.74
2023-03-16T05:13:56.900Z,2.76
2023-03-16T05:14:58.793Z,2.77
2023-03-16T05:16:01.994Z,2.78
2023-03-16T05:17:04.902Z,2.78
2023-03-16T05:18:06.689Z,2.80
2023-03-16T05:19:08.590Z,2.81
2023-03-16T05:20:15.839Z,2.84
2023-03-16T05:21:18.142Z,2.89
2023-03-16T05:22:20.172Z,2.89
2023-03-16T05:23:23.364Z,2.92
2023-03-16T05:24:25.346Z,2.92
2023-03-16T05:25:27.233Z,2.93
2023-03-16T05:26:29.087Z,2.93
2023-03-16T05:27:31.144Z,2.91
2023-03-16T05:28:33.155Z,2.92
2023-03-16T05:29:35.096Z,2.97
2023-03-16T05:30:37.079Z,2.97
2023-03-16T05:31:39.090Z,3.02
2023-03-16T05:32:41.142Z,3.05
2023-03-16T05:33:43.055Z,3.05
2023-03-16T05:34:45.012Z,3.11
2023-03-16T05:35:46.857Z,3.17
2023-03-16T05:36:48.902Z,3.24
2023-03-16T05:37:50.873Z,3.37
2023-03-16T05:38:52.836Z,3.56
2023-03-16T05:39:54.785Z,3.73
2023-03-16T05:41:02.229Z,3.77
2023-03-16T05:42:06.127Z,3.81
2023-03-16T05:43:08.429Z,3.80
2023-03-16T05:44:10.872Z,3.75
2023-03-16T05:45:14.939Z,3.75
2023-03-16T05:46:18.459Z,3.84
2023-03-16T05:47:22.329Z,3.80
2023-03-16T05:48:27.290Z,3.75
2023-03-16T05:49:29.211Z,3.74
2023-03-16T05:50:31.104Z,3.74
2023-03-16T05:51:33.043Z,3.81
2023-03-16T05:52:35.646Z,3.92
2023-03-16T05:53:37.464Z,3.99
2023-03-16T05:54:40.062Z,4.04
2023-03-16T05:55:41.842Z,4.01
2023-03-16T05:56:43.802Z,3.98
2023-03-16T05:57:45.944Z,3.97
2023-03-16T05:58:47.768Z,3.93
2023-03-16T05:59:50.658Z,3.93
2023-03-16T06:00:52.520Z,3.93
2023-03-16T06:01:54.349Z,3.89
2023-03-16T06:02:56.262Z,3.89
2023-03-16T06:03:58.208Z,3.86
2023-03-16T06:05:00.337Z,3.84
2023-03-16T06:06:02.250Z,3.85
2023-03-16T06:07:04.721Z,3.80
2023-03-16T06:08:06.700Z,3.76
2023-03-16T06:09:09.535Z,3.76
2023-03-16T06:10:12.593Z,3.75
2023-03-16T06:11:16.425Z,3.73
2023-03-16T06:12:18.389Z,3.71
2023-03-16T06:13:20.259Z,3.76
2023-03-16T06:14:23.317Z,3.82
2023-03-16T06:15:26.672Z,3.89
2023-03-16T06:16:29.208Z,3.91
2023-03-16T06:17:31.069Z,3.85
2023-03-16T06:18:35.635Z,3.80
2023-03-16T06:19:37.686Z,3.79
2023-03-16T06:20:39.860Z,3.84
2023-03-16T06:21:41.768Z,3.87
2023-03-16T06:22:44.253Z,3.90
2023-03-16T06:23:46.139Z,3.89
2023-03-16T06:24:48.110Z,3.94
2023-03-16T06:25:51.203Z,3.95
2023-03-16T06:26:53.427Z,3.98
2023-03-16T06:27:55.558Z,3.98
2023-03-16T06:28:57.367Z,3.98
2023-03-16T06:29:59.738Z,3.97
2023-03-16T06:31:01.816Z,3.90
2023-03-16T06:32:04.150Z,3.89
2023-03-16T06:33:06.252Z,3.93
2023-03-16T06:34:08.213Z,3.93
2023-03-16T06:35:10.540Z,3.94
2023-03-16T06:36:12.526Z,3.95
2023-03-16T06:37:14.640Z,3.99
2023-03-16T06:38:17.288Z,4.01
2023-03-16T06:39:19.118Z,4.05
2023-03-16T06:40:21.172Z,4.13
2023-03-16T06:41:23.002Z,4.21
2023-03-16T06:42:24.885Z,4.25
2023-03-16T06:43:26.797Z,4.27
2023-03-16T06:44:28.730Z,4.30
2023-03-16T06:45:30.786Z,4.41
2023-03-16T06:46:33.952Z,4.48
2023-03-16T06:47:35.798Z,4.47
2023-03-16T06:48:37.661Z,4.48
2023-03-16T06:49:39.742Z,4.52
2023-03-16T06:50:41.548Z,4.53
2023-03-16T06:51:43.432Z,4.56
2023-03-16T06:52:45.415Z,4.55
2023-03-16T06:53:47.432Z,4.51
2023-03-16T06:54:49.435Z,4.49
2023-03-16T06:55:51.515Z,4.48
2023-03-16T06:56:53.410Z,4.45
2023-03-16T06:57:55.847Z,4.46
2023-03-16T06:58:58.295Z,4.51
2023-03-16T07:00:00.148Z,4.55
2023-03-16T07:01:03.819Z,4.59
2023-03-16T07:02:07.039Z,4.60
2023-03-16T07:03:08.985Z,4.59
2023-03-16T07:04:12.868Z,4.62
2023-03-16T07:05:14.932Z,4.72
2023-03-16T07:06:17.182Z,4.68
2023-03-16T07:07:19.620Z,4.64
2023-03-16T07:08:21.898Z,4.64
2023-03-16T07:09:24.174Z,4.57
2023-03-16T07:10:25.978Z,4.63
2023-03-16T07:11:27.951Z,4.52
2023-03-16T07:12:29.821Z,4.48
2023-03-16T07:13:31.769Z,4.51
2023-03-16T07:14:33.782Z,4.55
2023-03-16T07:15:36.039Z,4.52
2023-03-16T07:16:38.086Z,4.50
2023-03-16T07:17:40.669Z,4.54
2023-03-16T07:18:44.578Z,4.56
2023-03-16T07:19:46.476Z,4.58
2023-03-16T07:20:48.366Z,4.66
2023-03-16T07:21:50.243Z,4.68
2023-03-16T07:22:52.515Z,4.71
2023-03-16T07:23:55.956Z,4.73
2023-03-16T07:24:58.216Z,4.75
2023-03-16T07:26:00.949Z,4.75
2023-03-16T07:27:02.739Z,4.75
2023-03-16T07:28:04.901Z,4.76
2023-03-16T07:29:07.311Z,4.81
2023-03-16T07:30:12.331Z,4.78
2023-03-16T07:31:15.013Z,4.87
2023-03-16T07:32:16.945Z,4.85
2023-03-16T07:33:18.903Z,4.83
2023-03-16T07:34:21.444Z,4.84
2023-03-16T07:35:24.331Z,4.87
2023-03-16T07:36:26.581Z,4.90
2023-03-16T07:37:28.450Z,4.98
2023-03-16T07:38:32.523Z,5.06
2023-03-16T07:39:34.437Z,5.23
2023-03-16T07:40:36.216Z,5.24
2023-03-16T07:41:38.168Z,5.24
2023-03-16T07:42:40.466Z,5.25
2023-03-16T07:43:42.449Z,5.25
2023-03-16T07:44:44.308Z,5.25
2023-03-16T07:45:52.572Z,5.29
2023-03-16T07:46:54.561Z,5.26
2023-03-16T07:47:56.575Z,5.27
2023-03-16T07:48:58.493Z,5.30
2023-03-16T07:50:01.467Z,5.23
2023-03-16T07:51:03.409Z,5.25
2023-03-16T07:52:05.441Z,5.30
2023-03-16T07:53:07.618Z,5.35
2023-03-16T07:54:09.558Z,5.28
2023-03-16T07:55:12.095Z,5.29
2023-03-16T07:56:14.652Z,5.13
2023-03-16T07:57:16.487Z,5.06
2023-03-16T07:58:18.476Z,5.02
2023-03-16T07:59:21.560Z,5.01
2023-03-16T08:00:24.889Z,4.99
2023-03-16T08:01:26.692Z,4.97
2023-03-16T08:02:28.630Z,4.90
2023-03-16T08:03:32.195Z,4.93
2023-03-16T08:04:34.561Z,4.97
2023-03-16T08:05:36.549Z,4.95
2023-03-16T08:06:38.554Z,4.99
2023-03-16T08:07:41.417Z,5.05
2023-03-16T08:08:43.386Z,5.13
2023-03-16T08:09:45.456Z,5.24
2023-03-16T08:10:49.260Z,5.33
2023-03-16T08:11:51.171Z,5.32
2023-03-16T08:12:53.051Z,5.35
2023-03-16T08:13:56.629Z,5.41
2023-03-16T08:14:58.613Z,5.43
2023-03-16T08:16:02.259Z,5.49
2023-03-16T08:17:05.935Z,5.50
2023-03-16T08:18:08.042Z,5.56
2023-03-16T08:19:11.703Z,5.58
2023-03-16T08:20:15.085Z,5.65
2023-03-16T08:21:18.120Z,5.61
2023-03-16T08:22:21.084Z,5.53
2023-03-16T08:23:24.437Z,5.57
2023-03-16T08:24:27.184Z,5.59
2023-03-16T08:25:29.196Z,5.59
2023-03-16T08:26:31.035Z,5.61
2023-03-16T08:27:33.437Z,5.66
2023-03-16T08:28:36.667Z,5.64
2023-03-16T08:29:38.545Z,5.62
2023-03-16T08:30:51.811Z,5.65
2023-03-16T08:31:57.793Z,5.65
2023-03-16T08:33:01.667Z,5.71
2023-03-16T08:34:04.258Z,5.69
2023-03-16T08:35:07.982Z,5.70
2023-03-16T08:36:11.965Z,5.73
2023-03-16T08:37:14.882Z,5.73
2023-03-16T08:38:16.697Z,5.76
2023-03-16T08:39:18.871Z,5.71
2023-03-16T08:40:22.699Z,5.73
2023-03-16T08:41:24.756Z,5.75
2023-03-16T08:42:28.961Z,5.71
2023-03-16T08:43:30.956Z,5.67
2023-03-16T08:44:33.189Z,5.61
2023-03-16T08:45:35.125Z,5.55
2023-03-16T08:46:37.134Z,5.49
2023-03-16T08:47:40.602Z,5.47
2023-03-16T08:48:43.292Z,5.47
2023-03-16T08:49:45.149Z,5.47
2023-03-16T08:50:47.232Z,5.45
2023-03-16T08:51:49.693Z,5.44
2023-03-16T08:52:51.535Z,5.44
2023-03-16T08:53:54.245Z,5.40
2023-03-16T08:55:03.478Z,5.36
2023-03-16T08:56:12.508Z,5.33
2023-03-16T08:57:14.361Z,5.36
2023-03-16T08:58:16.149Z,5.38
2023-03-16T08:59:29.069Z,5.37
2023-03-16T09:00:31.616Z,5.44
2023-03-16T09:01:34.269Z,5.47
2023-03-16T09:02:38.793Z,5.47
2023-03-16T09:03:42.592Z,5.48
2023-03-16T09:04:44.611Z,5.46
2023-03-16T09:05:47.052Z,5.40
2023-03-16T09:07:05.685Z,5.36
2023-03-16T09:08:10.104Z,5.30
2023-03-16T09:09:11.890Z,5.25
2023-03-16T09:10:16.506Z,5.21
2023-03-16T09:11:19.457Z,5.17
2023-03-16T09:12:22.432Z,5.02
2023-03-16T09:13:24.659Z,5.09
2023-03-16T09:14:26.605Z,5.12
2023-03-16T09:15:29.365Z,5.17
2023-03-16T09:16:31.272Z,5.31
2023-03-16T09:17:33.628Z,5.40
2023-03-16T09:18:36.393Z,5.46
2023-03-16T09:19:50.394Z,5.52
2023-03-16T09:21:00.148Z,5.64
2023-03-16T09:22:02.141Z,5.73
2023-03-16T09:23:04.454Z,5.82
2023-03-16T09:24:08.976Z,5.90
2023-03-16T09:25:11.381Z,5.97
2023-03-16T09:26:15.414Z,6.03
2023-03-16T09:27:17.677Z,6.19
2023-03-16T09:28:22.029Z,6.17
2023-03-16T09:29:24.647Z,6.13
2023-03-16T09:30:28.443Z,6.17
2023-03-16T09:31:30.728Z,6.21
2023-03-16T09:32:33.783Z,6.23
2023-03-16T09:33:37.093Z,6.21
2023-03-16T09:34:39.364Z,6.17
2023-03-16T09:35:41.514Z,6.13
2023-03-16T09:36:43.391Z,6.08
2023-03-16T09:38:01.076Z,5.96
2023-03-16T09:39:06.574Z,5.85
2023-03-16T09:40:19.316Z,5.81
2023-03-16T09:41:36.488Z,5.84
2023-03-16T09:42:48.508Z,5.78
2023-03-16T09:43:50.257Z,5.72
2023-03-16T09:45:21.409Z,5.77
2023-03-16T09:46:36.866Z,5.69
2023-03-16T09:47:40.762Z,5.75
2023-03-16T09:48:42.545Z,5.81
2023-03-16T09:49:48.008Z,5.90
2023-03-16T09:50:51.259Z,5.95
2023-03-16T09:52:05.452Z,6.01
2023-03-16T09:53:19.230Z,6.06
2023-03-16T09:54:33.394Z,6.16
2023-03-16T09:55:38.027Z,6.24
2023-03-16T09:56:42.642Z,6.26
2023-03-16T09:57:46.576Z,6.20
2023-03-16T09:58:48.496Z,6.17
2023-03-16T09:59:50.293Z,6.17
2023-03-16T10:01:24.602Z,6.15
2023-03-16T10:02:48.602Z,6.16
2023-03-16T10:04:18.427Z,6.05
2023-03-16T10:05:24.620Z,5.95
2023-03-16T10:06:27.445Z,5.87
2023-03-16T10:08:09.088Z,5.81
2023-03-16T10:09:11.388Z,5.82
2023-03-16T10:10:23.962Z,5.73
2023-03-16T10:11:34.328Z,5.72
2023-03-16T10:12:42.104Z,5.72
2023-03-16T10:14:02.781Z,5.68
2023-03-16T10:15:15.277Z,5.65
2023-03-16T10:16:21.548Z,5.62
2023-03-16T10:17:33.355Z,5.59
2023-03-16T10:19:19.833Z,5.57
2023-03-16T10:20:24.144Z,5.54
2023-03-16T10:21:26.089Z,5.51
2023-03-16T10:22:36.805Z,5.52
2023-03-16T10:23:40.952Z,5.53
2023-03-16T10:24:47.639Z,5.58
2023-03-16T10:25:51.959Z,5.53
2023-03-16T10:27:00.457Z,5.52
2023-03-16T10:28:02.521Z,5.51
2023-03-16T10:29:10.628Z,5.53
2023-03-16T10:30:24.683Z,5.56
2023-03-16T10:31:28.477Z,5.57
2023-03-16T10:32:35.734Z,5.60
2023-03-16T10:33:38.385Z,5.61
2023-03-16T10:34:40.881Z,5.66
2023-03-16T10:35:57.999Z,5.70
2023-03-16T10:37:03.123Z,5.70
2023-03-16T10:38:07.812Z,5.73
2023-03-16T10:39:13.253Z,5.73
2023-03-16T10:40:16.374Z,5.64
2023-03-16T10:41:18.276Z,5.62
2023-03-16T10:42:21.479Z,5.62
2023-03-16T10:43:24.485Z,5.64
2023-03-16T10:44:28.718Z,5.65
2023-03-16T10:45:34.462Z,5.68
2023-03-16T10:46:43.013Z,5.71
2023-03-16T10:47:44.932Z,5.68
2023-03-16T10:49:01.547Z,5.67
2023-03-16T10:50:16.902Z,5.67
2023-03-16T10:51:26.208Z,5.67
2023-03-16T10:52:35.330Z,5.71
2023-03-16T10:53:42.736Z,5.73
2023-03-16T10:54:53.030Z,5.72
2023-03-16T10:56:02.161Z,5.71
2023-03-16T10:57:34.113Z,5.76
2023-03-16T10:58:43.293Z,5.75
2023-03-16T10:59:49.748Z,5.77
2023-03-16T11:00:51.993Z,5.72
2023-03-16T11:01:54.672Z,5.71
2023-03-16T11:02:59.971Z,5.65
2023-03-16T11:04:02.723Z,5.61
2023-03-16T11:05:17.828Z,5.65
2023-03-16T11:06:24.935Z,5.65
2023-03-16T11:07:27.809Z,5.61
2023-03-16T11:08:35.629Z,5.56
2023-03-16T11:09:37.444Z,5.58
2023-03-16T11:10:55.031Z,5.56
2023-03-16T11:11:58.007Z,5.55
2023-03-16T11:13:20.989Z,5.51
2023-03-16T11:14:26.012Z,5.57
2023-03-16T11:15:37.095Z,5.54
2023-03-16T11:16:57.137Z,5.52
2023-03-16T11:17:59.464Z,5.49
2023-03-16T11:19:19.009Z,5.47
2023-03-16T11:20:28.681Z,5.44
2023-03-16T11:21:51.666Z,5.42
2023-03-16T11:22:53.510Z,5.37
2023-03-16T11:23:57.101Z,5.36
2023-03-16T11:25:41.501Z,5.40
2023-03-16T11:26:45.606Z,5.36
2023-03-16T11:28:06.586Z,5.33
2023-03-16T11:29:27.668Z,5.33
2023-03-16T11:30:35.417Z,5.32
2023-03-16T11:31:54.097Z,5.29
2023-03-16T11:32:56.049Z,5.29
2023-03-16T11:33:58.141Z,5.28
2023-03-16T11:35:00.400Z,5.29
2023-03-16T11:36:29.980Z,5.26
2023-03-16T11:38:09.568Z,5.24
2023-03-16T11:39:30.814Z,5.20
2023-03-16T11:40:44.174Z,5.25
2023-03-16T11:41:54.865Z,5.23
2023-03-16T11:43:21.228Z,5.24
2023-03-16T11:44:38.777Z,5.24
2023-03-16T11:46:02.920Z,5.19
2023-03-16T11:47:16.826Z,5.16
2023-03-16T11:48:32.312Z,5.13
2023-03-16T11:49:44.633Z,5.03
2023-03-16T11:50:49.890Z,5.01
2023-03-16T11:52:03.966Z,4.97
2023-03-16T11:53:25.010Z,4.93
2023-03-16T11:54:55.701Z,4.96
2023-03-16T11:55:57.536Z,4.96
2023-03-16T11:57:27.421Z,4.98
2023-03-16T11:58:51.030Z,5.06
2023-03-16T12:00:01.480Z,5.01
2023-03-16T12:01:13.355Z,5.03
2023-03-16T12:02:33.578Z,5.08
2023-03-16T12:04:05.818Z,5.13
2023-03-16T12:05:31.236Z,5.14
2023-03-16T12:06:45.416Z,5.09
2023-03-16T12:08:13.021Z,5.07
2023-03-16T12:09:37.804Z,5.06
2023-03-16T12:11:07.944Z,5.05
2023-03-16T12:12:34.641Z,5.01
2023-03-16T12:14:12.219Z,5.00
2023-03-16T12:15:36.192Z,5.03
2023-03-16T12:16:52.139Z,4.97
2023-03-16T12:17:59.500Z,4.93
2023-03-16T12:19:12.232Z,4.89
2023-03-16T12:20:23.471Z,4.85
2023-03-16T12:21:32.434Z,4.83
2023-03-16T12:22:44.538Z,4.85
2023-03-16T12:23:56.814Z,4.80
2023-03-16T12:24:58.655Z,4.74
2023-03-16T12:26:03.658Z,4.72
2023-03-16T12:27:06.935Z,4.74
2023-03-16T12:28:39.481Z,4.75
2023-03-16T12:30:03.958Z,4.71
2023-03-16T12:31:16.324Z,4.67
2023-03-16T12:32:26.135Z,4.65
2023-03-16T12:33:46.504Z,4.62
2023-03-16T12:35:00.276Z,4.62
2023-03-16T12:36:20.286Z,4.62
2023-03-16T12:37:34.101Z,4.60
2023-03-16T12:38:50.392Z,4.55
2023-03-16T12:40:23.159Z,4.58
2023-03-16T12:41:28.213Z,4.54
2023-03-16T12:42:41.706Z,4.55
2023-03-16T12:44:10.127Z,4.54
2023-03-16T12:45:31.988Z,4.42
2023-03-16T12:46:48.082Z,4.43
2023-03-16T12:48:05.110Z,4.41
2023-03-16T12:49:09.959Z,4.38
2023-03-16T12:50:15.761Z,4.38
2023-03-16T12:51:18.590Z,4.39
2023-03-16T12:52:20.673Z,4.33
2023-03-16T12:53:40.683Z,4.39
2023-03-16T12:54:54.940Z,4.40
2023-03-16T12:55:58.212Z,4.37
2023-03-16T12:57:03.817Z,4.38
2023-03-16T12:58:08.722Z,4.38
2023-03-16T12:59:21.157Z,4.38
2023-03-16T13:00:37.747Z,4.38
2023-03-16T13:01:44.015Z,4.40
2023-03-16T13:02:53.812Z,4.40
2023-03-16T13:04:09.238Z,4.41
2023-03-16T13:05:28.766Z,4.39
2023-03-16T13:06:36.640Z,4.38
2023-03-16T13:07:47.828Z,4.41
2023-03-16T13:08:59.903Z,4.40
2023-03-16T13:10:14.843Z,4.39
2023-03-16T13:11:16.772Z,4.37
2023-03-16T13:12:37.064Z,4.34
2023-03-16T13:13:52.781Z,4.39
2023-03-16T13:14:56.028Z,4.40
2023-03-16T13:16:11.170Z,4.43
2023-03-16T13:17:16.061Z,4.41
2023-03-16T13:18:17.823Z,4.42
2023-03-16T13:19:19.755Z,4.39
2023-03-16T13:20:34.110Z,4.42
2023-03-16T13:21:42.997Z,4.43
2023-03-16T13:23:07.579Z,4.41
2023-03-16T13:24:18.801Z,4.44
2023-03-16T13:25:36.420Z,4.42
2023-03-16T13:26:50.052Z,4.44
2023-03-16T13:27:58.298Z,4.43
2023-03-16T13:29:00.739Z,4.44
2023-03-16T13:30:18.405Z,4.43
2023-03-16T13:31:29.035Z,4.38
2023-03-16T13:32:33.196Z,4.41
2023-03-16T13:33:40.868Z,4.40
2023-03-16T13:34:52.015Z,4.39
2023-03-16T13:35:57.886Z,4.38
2023-03-16T13:37:01.793Z,4.37
2023-03-16T13:38:07.458Z,4.35
2023-03-16T13:39:22.684Z,4.35
2023-03-16T13:40:27.912Z,4.33
2023-03-16T13:41:30.808Z,4.32
2023-03-16T13:42:34.073Z,4.33
2023-03-16T13:43:41.821Z,4.35
2023-03-16T13:44:44.703Z,4.32
2023-03-16T13:45:47.212Z,4.32
2023-03-16T13:46:51.069Z,4.30
2023-03-16T13:47:53.699Z,4.32
2023-03-16T13:48:58.565Z,4.32
2023-03-16T13:50:00.756Z,4.33
2023-03-16T13:51:03.297Z,4.34
2023-03-16T13:52:06.105Z,4.35
2023-03-16T13:53:25.202Z,4.38
2023-03-16T13:54:29.901Z,4.35
2023-03-16T13:55:34.794Z,4.32
2023-03-16T13:56:37.390Z,4.32
2023-03-16T13:57:42.229Z,4.31
2023-03-16T13:58:47.640Z,4.33
2023-03-16T13:59:50.358Z,4.30
2023-03-16T14:01:00.656Z,4.35
2023-03-16T14:02:03.048Z,4.37
2023-03-16T14:03:17.836Z,4.32
2023-03-16T14:04:24.095Z,4.34
2023-03-16T14:05:33.485Z,4.32
2023-03-16T14:06:35.958Z,4.30
2023-03-16T14:07:39.513Z,4.30
2023-03-16T14:08:45.757Z,4.29
2023-03-16T14:09:49.824Z,4.29
2023-03-16T14:10:54.642Z,4.32
2023-03-16T14:11:57.877Z,4.28
2023-03-16T14:13:10.656Z,4.25
2023-03-16T14:14:17.465Z,4.23
2023-03-16T14:15:20.323Z,4.22
2023-03-16T14:16:26.021Z,4.21
2023-03-16T14:17:28.733Z,4.19
2023-03-16T14:18:42.423Z,4.21
2023-03-16T14:20:00.163Z,4.22
2023-03-16T14:21:16.595Z,4.20
2023-03-16T14:22:20.521Z,4.20
2023-03-16T14:23:35.922Z,4.20
2023-03-16T14:24:40.770Z,4.16
2023-03-16T14:25:43.296Z,4.20
2023-03-16T14:26:47.505Z,4.20
2023-03-16T14:27:58.412Z,4.21
2023-03-16T14:29:15.095Z,4.19
2023-03-16T14:30:20.299Z,4.21
2023-03-16T14:31:22.272Z,4.18
2023-03-16T14:32:32.054Z,4.16
2023-03-16T14:33:42.084Z,4.15
2023-03-16T14:34:50.193Z,4.14
2023-03-16T14:35:56.185Z,4.15